Antares — DFJQ — position and weather

sailwx.info

Track history (hours):
 
Tides and Currents Weather Stations Pressure Air Temp Water Temp Dewpoint Dewpoint Depression Visibility Wind Speed Wind Dir Waves Ship Positions

Antares

Last reported at 2016-Jul-24 15:33 UTC. Time now 2016-Jul-24 16:41 UTC.
Position N 52°02' E 003°03'.

Length 79 m; draft 4.3 m.

Type: Ship. MMSI: 218777000.

Date/timePositionNaut miles runAvg speedWind from/ knotsBaromVisibWave heightAir tempDewpointWater temp
2016-Jul-24 15:33N 52°02' E 003°03'9 9.1
2016-Jul-24 14:33N 52°02' E 003°18'1010.1
2016-Jul-24 13:32N 52°03' E 003°35'1010.8
2016-Jul-24 12:34N 52°02' E 003°52'1110.6
2016-Jul-24 11:34N 51°58' E 004°08'10 9.7
2016-Jul-24 10:33N 51°54' E 004°22'0 0.0
2016-Jul-24 09:29N 51°54' E 004°22'0 0.0
2016-Jul-24 08:32N 51°54' E 004°22'0 0.0
2016-Jul-24 07:32N 51°54' E 004°22'0 0.0
2016-Jul-24 06:29N 51°54' E 004°22'0 0.0
2016-Jul-24 05:32N 51°54' E 004°22'0 0.0
2016-Jul-24 04:32N 51°54' E 004°22'0 0.0
2016-Jul-24 03:32N 51°54' E 004°22'0 0.0
2016-Jul-24 02:32N 51°54' E 004°22'0 0.0
2016-Jul-24 01:32N 51°54' E 004°22'0 0.0
2016-Jul-24 00:32N 51°54' E 004°22'0 0.0
2016-Jul-23 23:32N 51°54' E 004°22'0 0.0
2016-Jul-23 22:32N 51°54' E 004°22'0 0.0
2016-Jul-23 21:32N 51°54' E 004°22'0 0.0
2016-Jul-23 20:32N 51°54' E 004°22'3 2.9
2016-Jul-23 19:34N 51°54' E 004°17'9 8.7
2016-Jul-23 18:34N 51°59' E 004°06'1010.1
2016-Jul-23 17:34N 52°00' E 003°49'1311.3
2016-Jul-23 16:26N 51°56' E 003°30'1311.7
2016-Jul-23 15:18N 51°52' E 003°09'911.6
2016-Jul-23 14:33N 51°49' E 002°56'1111.0
2016-Jul-23 13:33N 51°46' E 002°39'1010.0
2016-Jul-23 12:33N 51°38' E 002°28'9 9.1
2016-Jul-23 11:34N 51°31' E 002°19'8 7.9
2016-Jul-23 10:34N 51°26' E 002°10'8 8.2
2016-Jul-23 09:33N 51°23' E 001°58'10 9.9
2016-Jul-23 08:34N 51°27' E 001°43'1010.3
2016-Jul-23 07:34N 51°27' E 001°27'1211.8
2016-Jul-23 06:34N 51°29' E 001°08'2512.5
2016-Jul-23 04:34N 51°29' E 000°28'8 8.1
2016-Jul-23 03:34N 51°28' E 000°15'5 4.7
2016-Jul-23 02:30N 51°31' E 000°08'0 0.0
2016-Jul-23 01:33N 51°31' E 000°08'0 0.0
2016-Jul-23 00:33N 51°31' E 000°08'0 0.0
2016-Jul-22 23:33N 51°31' E 000°08'0 0.0
2016-Jul-22 22:33N 51°31' E 000°08'0 0.0
2016-Jul-22 20:30N 51°31' E 000°08'0 0.0
2016-Jul-22 19:33N 51°31' E 000°08'0 0.0
2016-Jul-22 18:30N 51°31' E 000°08'0 0.0
2016-Jul-22 17:33N 51°31' E 000°08'0 0.0
2016-Jul-22 16:33N 51°31' E 000°08'0 0.0
2016-Jul-22 15:33N 51°31' E 000°08'0 0.0
2016-Jul-22 14:30N 51°31' E 000°08'0 0.0
2016-Jul-22 13:30N 51°31' E 000°08'0 0.0
2016-Jul-22 12:27N 51°31' E 000°08'0 0.0
2016-Jul-22 11:24N 51°31' E 000°08'6 7.4
2016-Jul-22 10:33N 51°27' E 000°17'9 9.0
2016-Jul-22 09:34N 51°30' E 000°31'1010.4
2016-Jul-22 08:33N 51°29' E 000°47'9 9.3
2016-Jul-22 07:33N 51°30' E 001°02'16 8.1
2016-Jul-22 05:33N 51°26' E 001°27'3 2.6
2016-Jul-22 04:33N 51°25' E 001°23'0 0.0
2016-Jul-22 03:33N 51°25' E 001°23'0 0.0
2016-Jul-22 02:34N 51°25' E 001°23'0 0.1
2016-Jul-22 01:33N 51°25' E 001°23'0 0.0
2016-Jul-22 00:33N 51°25' E 001°23'0 0.0
2016-Jul-21 23:33N 51°25' E 001°23'0 0.0
2016-Jul-21 22:33N 51°25' E 001°23'0 0.0
2016-Jul-21 21:33N 51°25' E 001°23'0 0.0
2016-Jul-21 20:33N 51°25' E 001°23'0 0.1
2016-Jul-21 19:33N 51°25' E 001°24'0 0.0
2016-Jul-21 18:33N 51°25' E 001°24'0 0.0
2016-Jul-21 17:33N 51°25' E 001°24'0 0.0
2016-Jul-21 16:33N 51°25' E 001°24'0 0.0
2016-Jul-21 15:33N 51°25' E 001°24'0 0.1
2016-Jul-21 14:33N 51°25' E 001°23'0 0.1
2016-Jul-21 13:33N 51°25' E 001°23'0 0.0
2016-Jul-21 12:33N 51°25' E 001°23'0 0.0
2016-Jul-21 11:34N 51°25' E 001°23'0 0.0
2016-Jul-21 10:33N 51°25' E 001°23'0 0.0
2016-Jul-21 09:33N 51°25' E 001°23'0 0.0
2016-Jul-21 08:33N 51°25' E 001°23'0 0.1
2016-Jul-21 07:34N 51°25' E 001°24'0 0.0
2016-Jul-21 06:33N 51°25' E 001°24'0 0.0
2016-Jul-21 05:33N 51°25' E 001°24'0 0.0
2016-Jul-21 04:33N 51°25' E 001°24'0 0.0
2016-Jul-21 03:33N 51°25' E 001°24'0 0.0
2016-Jul-21 02:33N 51°25' E 001°24'0 0.0
2016-Jul-21 01:34N 51°25' E 001°24'0 0.1
2016-Jul-21 00:33N 51°25' E 001°23'0 0.1
2016-Jul-20 23:33N 51°25' E 001°24'9 9.4
2016-Jul-20 22:33N 51°29' E 001°37'1110.7
2016-Jul-20 21:33N 51°35' E 001°52'1110.7
2016-Jul-20 20:33N 51°41' E 002°06'1010.1
2016-Jul-20 19:33N 51°46' E 002°20'9 9.0
2016-Jul-20 18:33N 51°52' E 002°31'17 7.9
2016-Jul-20 16:24N 52°02' E 002°54'8 8.6
2016-Jul-20 15:27N 52°02' E 003°07'8 8.5
2016-Jul-20 14:33N 52°03' E 003°19'8 8.1
2016-Jul-20 13:32N 52°03' E 003°33'8 8.6
2016-Jul-20 12:33N 52°03' E 003°46'9 9.2
2016-Jul-20 11:34N 52°01' E 004°01'9 8.7
2016-Jul-20 10:33N 51°56' E 004°12'0 0.0
2016-Jul-20 09:31N 51°56' E 004°12'0 0.0
2016-Jul-20 08:31N 51°56' E 004°12'0 0.0
2016-Jul-20 07:31N 51°56' E 004°12'0 0.0
2016-Jul-20 06:34N 51°56' E 004°12'0 0.0
2016-Jul-20 05:31N 51°56' E 004°12'0 0.0
2016-Jul-20 04:34N 51°56' E 004°12'0 0.0
2016-Jul-20 03:31N 51°56' E 004°12'0 0.0
2016-Jul-20 02:31N 51°56' E 004°12'0 0.0
2016-Jul-20 01:31N 51°56' E 004°12'0 0.0
2016-Jul-20 00:31N 51°56' E 004°12'0 0.0
2016-Jul-19 23:33N 51°56' E 004°12'6 6.0
2016-Jul-19 22:33N 51°59' E 004°04'8 7.9
2016-Jul-19 21:34N 51°59' E 003°51'6 5.9
2016-Jul-19 20:33N 51°55' E 003°44'0 0.0
2016-Jul-19 19:22N 51°55' E 003°44'0 0.0
2016-Jul-19 18:25N 51°55' E 003°44'0 0.0
2016-Jul-19 17:25N 51°55' E 003°44'0 0.1
2016-Jul-19 16:31N 51°55' E 003°44'0 0.0
2016-Jul-19 15:28N 51°55' E 003°44'0 0.0
2016-Jul-19 14:31N 51°55' E 003°44'0 0.0
2016-Jul-19 13:31N 51°55' E 003°44'0 0.0
2016-Jul-19 12:31N 51°55' E 003°44'0 0.0
2016-Jul-19 10:25N 51°55' E 003°44'0 0.0
2016-Jul-19 09:31N 51°55' E 003°44'0 0.0
2016-Jul-19 08:28N 51°55' E 003°44'0 0.0
2016-Jul-19 07:31N 51°55' E 003°44'0 0.0
2016-Jul-19 04:31N 51°55' E 003°44'0 0.0
2016-Jul-19 03:31N 51°55' E 003°44'0 0.0
2016-Jul-19 02:28N 51°55' E 003°44'0 0.0
2016-Jul-19 01:28N 51°55' E 003°44'0 0.0
2016-Jul-19 00:33N 51°55' E 003°44'0 0.1
2016-Jul-18 23:33N 51°55' E 003°44'0 0.1
2016-Jul-18 22:33N 51°55' E 003°44'0 0.0
2016-Jul-18 21:33N 51°55' E 003°44'0 0.0
2016-Jul-18 20:34N 51°55' E 003°44'0 0.0
2016-Jul-18 19:33N 51°55' E 003°44'0 0.0
2016-Jul-18 18:33N 51°55' E 003°44'0 0.0
2016-Jul-18 17:34N 51°55' E 003°44'0 0.1
2016-Jul-18 16:34N 51°55' E 003°44'0 0.0
2016-Jul-18 15:34N 51°55' E 003°44'0 0.0
2016-Jul-18 14:34N 51°55' E 003°44'0 0.0
2016-Jul-18 13:34N 51°55' E 003°44'0 0.0
2016-Jul-18 12:34N 51°55' E 003°44'0 0.0
2016-Jul-18 11:34N 51°55' E 003°44'0 0.1
2016-Jul-18 10:33N 51°55' E 003°44'0 0.1
2016-Jul-18 09:33N 51°55' E 003°44'2 1.9
2016-Jul-18 08:34N 51°55' E 003°41'9 8.8
2016-Jul-18 07:33N 51°55' E 003°27'9 9.0
2016-Jul-18 06:33N 51°53' E 003°13'9 9.2
2016-Jul-18 05:34N 51°50' E 002°59'10 9.7
2016-Jul-18 04:33N 51°47' E 002°44'1010.0
2016-Jul-18 03:34N 51°41' E 002°32'1110.9
2016-Jul-18 02:33N 51°32' E 002°21'1111.1
2016-Jul-18 01:33N 51°23' E 002°10'1111.4
2016-Jul-18 00:33N 51°13' E 002°01'1212.4
2016-Jul-17 23:34N 51°06' E 001°46'1313.2
2016-Jul-17 22:33N 50°57' E 001°30'1312.9
2016-Jul-17 21:32N 50°44' E 001°23'3711.2
2016-Jul-17 18:14N 50°24' E 000°35'811.5
2016-Jul-17 17:33N 50°21' E 000°23'1111.2
2016-Jul-17 16:34N 50°18' E 000°06'9 9.3
2016-Jul-17 15:34N 50°09' E 000°01'10 9.8
2016-Jul-17 14:34N 49°60' E 000°01'10 9.7
2016-Jul-17 13:33N 49°50' W 000°00'10 9.5
2016-Jul-17 12:34N 49°41' W 000°04'1010.4
2016-Jul-17 11:34N 49°31' E 000°02'6 6.2
2016-Jul-17 10:34N 49°29' E 000°10'1 1.3
2016-Jul-17 09:33N 49°29' E 000°12'0 0.0
2016-Jul-17 08:33N 49°29' E 000°12'0 0.0
2016-Jul-17 07:30N 49°29' E 000°12'0 0.0
2016-Jul-17 06:33N 49°29' E 000°12'0 0.0
2016-Jul-17 04:33N 49°29' E 000°12'0 0.0
2016-Jul-17 03:33N 49°29' E 000°12'0 0.0
2016-Jul-17 02:33N 49°29' E 000°12'0 0.0
2016-Jul-17 01:33N 49°29' E 000°12'0 0.0
2016-Jul-17 00:33N 49°29' E 000°12'0 0.0
2016-Jul-16 23:33N 49°29' E 000°12'0 0.0
2016-Jul-16 22:33N 49°29' E 000°12'0 0.0
2016-Jul-16 21:33N 49°29' E 000°12'0 0.0
2016-Jul-16 20:33N 49°29' E 000°12'0 0.0
2016-Jul-16 19:33N 49°29' E 000°12'0 0.0
2016-Jul-16 18:33N 49°29' E 000°12'0 0.0
2016-Jul-16 17:33N 49°29' E 000°12'0 0.0
2016-Jul-16 16:33N 49°29' E 000°12'0 0.0
2016-Jul-16 15:33N 49°29' E 000°12'0 0.0
2016-Jul-16 14:33N 49°29' E 000°12'1 1.3
2016-Jul-16 13:34N 49°29' E 000°10'5 4.5
2016-Jul-16 12:33N 49°29' E 000°03'9 8.6
2016-Jul-16 11:34N 49°32' W 000°09'8 8.3
2016-Jul-16 10:34N 49°40' W 000°06'9 9.0
2016-Jul-16 09:33N 49°49' W 000°02'9 9.4
2016-Jul-16 08:33N 49°58' W 000°03'9 9.1
2016-Jul-16 07:33N 50°07' W 000°03'9 8.6
2016-Jul-16 06:33N 50°16' W 000°02'14 7.1
2016-Jul-16 04:33N 50°29' E 000°06'9 8.6
2016-Jul-16 03:31N 50°32' E 000°19'37 9.3
2016-Jul-15 23:33N 50°50' E 001°10'8 8.4
2016-Jul-15 22:33N 50°56' E 001°19'8 7.6
2016-Jul-15 21:34N 51°02' E 001°27'7 7.0
2016-Jul-15 20:34N 51°07' E 001°35'7 7.4
2016-Jul-15 19:34N 51°12' E 001°43'8 8.5
2016-Jul-15 18:34N 51°20' E 001°49'10 9.7
2016-Jul-15 17:34N 51°28' E 001°57'1010.1
2016-Jul-15 16:34N 51°36' E 002°08'10 9.9
2016-Jul-15 15:34N 51°43' E 002°18'10 9.6
2016-Jul-15 14:33N 51°50' E 002°29'29 8.6
2016-Jul-15 11:10N 52°12' E 002°60'5 8.1
2016-Jul-15 10:32N 52°17' E 003°04'8 8.1
2016-Jul-15 09:33N 52°23' E 003°12'9 8.7
2016-Jul-15 08:32N 52°30' E 003°21'10 9.3
2016-Jul-15 07:28N 52°38' E 003°32'75 8.4
2016-Jul-14 22:33N 53°32' E 004°57'9 8.9
2016-Jul-14 21:33N 53°35' E 005°11'9 8.7
2016-Jul-14 20:33N 53°38' E 005°25'8 8.1
2016-Jul-14 19:33N 53°41' E 005°38'8 7.6
2016-Jul-14 18:34N 53°43' E 005°50'7 7.1
2016-Jul-14 17:34N 53°45' E 006°02'7 6.8
2016-Jul-14 16:34N 53°47' E 006°13'  
Track history (hours):
 
Tides and Currents Weather Stations Pressure Air Temp Water Temp Dewpoint Dewpoint Depression Visibility Wind Speed Wind Dir Waves Ship Positions

Antares

Last reported at 2016-Jul-24 15:33 UTC. Time now 2016-Jul-24 16:41 UTC.
Position N 52°02' E 003°03'.

Length 79 m; draft 4.3 m.

Type: Ship. MMSI: 218777000.

Date/timePositionNaut miles runAvg speedWind from/ knotsBaromVisibWave heightAir tempDewpointWater temp
2016-Jul-24 15:33N 52°02' E 003°03'9 9.1
2016-Jul-24 14:33N 52°02' E 003°18'1010.1
2016-Jul-24 13:32N 52°03' E 003°35'1010.8
2016-Jul-24 12:34N 52°02' E 003°52'1110.6
2016-Jul-24 11:34N 51°58' E 004°08'10 9.7
2016-Jul-24 10:33N 51°54' E 004°22'0 0.0
2016-Jul-24 09:29N 51°54' E 004°22'0 0.0
2016-Jul-24 08:32N 51°54' E 004°22'0 0.0
2016-Jul-24 07:32N 51°54' E 004°22'0 0.0
2016-Jul-24 06:29N 51°54' E 004°22'0 0.0
2016-Jul-24 05:32N 51°54' E 004°22'0 0.0
2016-Jul-24 04:32N 51°54' E 004°22'0 0.0
2016-Jul-24 03:32N 51°54' E 004°22'0 0.0
2016-Jul-24 02:32N 51°54' E 004°22'0 0.0
2016-Jul-24 01:32N 51°54' E 004°22'0 0.0
2016-Jul-24 00:32N 51°54' E 004°22'0 0.0
2016-Jul-23 23:32N 51°54' E 004°22'0 0.0
2016-Jul-23 22:32N 51°54' E 004°22'0 0.0
2016-Jul-23 21:32N 51°54' E 004°22'0 0.0
2016-Jul-23 20:32N 51°54' E 004°22'3 2.9
2016-Jul-23 19:34N 51°54' E 004°17'9 8.7
2016-Jul-23 18:34N 51°59' E 004°06'1010.1
2016-Jul-23 17:34N 52°00' E 003°49'1311.3
2016-Jul-23 16:26N 51°56' E 003°30'1311.7
2016-Jul-23 15:18N 51°52' E 003°09'911.6
2016-Jul-23 14:33N 51°49' E 002°56'1111.0
2016-Jul-23 13:33N 51°46' E 002°39'1010.0
2016-Jul-23 12:33N 51°38' E 002°28'9 9.1
2016-Jul-23 11:34N 51°31' E 002°19'8 7.9
2016-Jul-23 10:34N 51°26' E 002°10'8 8.2
2016-Jul-23 09:33N 51°23' E 001°58'10 9.9
2016-Jul-23 08:34N 51°27' E 001°43'1010.3
2016-Jul-23 07:34N 51°27' E 001°27'1211.8
2016-Jul-23 06:34N 51°29' E 001°08'2512.5
2016-Jul-23 04:34N 51°29' E 000°28'8 8.1
2016-Jul-23 03:34N 51°28' E 000°15'5 4.7
2016-Jul-23 02:30N 51°31' E 000°08'0 0.0
2016-Jul-23 01:33N 51°31' E 000°08'0 0.0
2016-Jul-23 00:33N 51°31' E 000°08'0 0.0
2016-Jul-22 23:33N 51°31' E 000°08'0 0.0
2016-Jul-22 22:33N 51°31' E 000°08'0 0.0
2016-Jul-22 20:30N 51°31' E 000°08'0 0.0
2016-Jul-22 19:33N 51°31' E 000°08'0 0.0
2016-Jul-22 18:30N 51°31' E 000°08'0 0.0
2016-Jul-22 17:33N 51°31' E 000°08'0 0.0
2016-Jul-22 16:33N 51°31' E 000°08'0 0.0
2016-Jul-22 15:33N 51°31' E 000°08'0 0.0
2016-Jul-22 14:30N 51°31' E 000°08'0 0.0
2016-Jul-22 13:30N 51°31' E 000°08'0 0.0
2016-Jul-22 12:27N 51°31' E 000°08'0 0.0
2016-Jul-22 11:24N 51°31' E 000°08'6 7.4
2016-Jul-22 10:33N 51°27' E 000°17'9 9.0
2016-Jul-22 09:34N 51°30' E 000°31'1010.4
2016-Jul-22 08:33N 51°29' E 000°47'9 9.3
2016-Jul-22 07:33N 51°30' E 001°02'16 8.1
2016-Jul-22 05:33N 51°26' E 001°27'3 2.6
2016-Jul-22 04:33N 51°25' E 001°23'0 0.0
2016-Jul-22 03:33N 51°25' E 001°23'0 0.0
2016-Jul-22 02:34N 51°25' E 001°23'0 0.1
2016-Jul-22 01:33N 51°25' E 001°23'0 0.0
2016-Jul-22 00:33N 51°25' E 001°23'0 0.0
2016-Jul-21 23:33N 51°25' E 001°23'0 0.0
2016-Jul-21 22:33N 51°25' E 001°23'0 0.0
2016-Jul-21 21:33N 51°25' E 001°23'0 0.0
2016-Jul-21 20:33N 51°25' E 001°23'0 0.1
2016-Jul-21 19:33N 51°25' E 001°24'0 0.0
2016-Jul-21 18:33N 51°25' E 001°24'0 0.0
2016-Jul-21 17:33N 51°25' E 001°24'0 0.0
2016-Jul-21 16:33N 51°25' E 001°24'0 0.0
2016-Jul-21 15:33N 51°25' E 001°24'0 0.1
2016-Jul-21 14:33N 51°25' E 001°23'0 0.1
2016-Jul-21 13:33N 51°25' E 001°23'0 0.0
2016-Jul-21 12:33N 51°25' E 001°23'0 0.0
2016-Jul-21 11:34N 51°25' E 001°23'0 0.0
2016-Jul-21 10:33N 51°25' E 001°23'0 0.0
2016-Jul-21 09:33N 51°25' E 001°23'0 0.0
2016-Jul-21 08:33N 51°25' E 001°23'0 0.1
2016-Jul-21 07:34N 51°25' E 001°24'0 0.0
2016-Jul-21 06:33N 51°25' E 001°24'0 0.0
2016-Jul-21 05:33N 51°25' E 001°24'0 0.0
2016-Jul-21 04:33N 51°25' E 001°24'0 0.0
2016-Jul-21 03:33N 51°25' E 001°24'0 0.0
2016-Jul-21 02:33N 51°25' E 001°24'0 0.0
2016-Jul-21 01:34N 51°25' E 001°24'0 0.1
2016-Jul-21 00:33N 51°25' E 001°23'0 0.1
2016-Jul-20 23:33N 51°25' E 001°24'9 9.4
2016-Jul-20 22:33N 51°29' E 001°37'1110.7
2016-Jul-20 21:33N 51°35' E 001°52'1110.7
2016-Jul-20 20:33N 51°41' E 002°06'1010.1
2016-Jul-20 19:33N 51°46' E 002°20'9 9.0
2016-Jul-20 18:33N 51°52' E 002°31'17 7.9
2016-Jul-20 16:24N 52°02' E 002°54'8 8.6
2016-Jul-20 15:27N 52°02' E 003°07'8 8.5
2016-Jul-20 14:33N 52°03' E 003°19'8 8.1
2016-Jul-20 13:32N 52°03' E 003°33'8 8.6
2016-Jul-20 12:33N 52°03' E 003°46'9 9.2
2016-Jul-20 11:34N 52°01' E 004°01'9 8.7
2016-Jul-20 10:33N 51°56' E 004°12'0 0.0
2016-Jul-20 09:31N 51°56' E 004°12'0 0.0
2016-Jul-20 08:31N 51°56' E 004°12'0 0.0
2016-Jul-20 07:31N 51°56' E 004°12'0 0.0
2016-Jul-20 06:34N 51°56' E 004°12'0 0.0
2016-Jul-20 05:31N 51°56' E 004°12'0 0.0
2016-Jul-20 04:34N 51°56' E 004°12'0 0.0
2016-Jul-20 03:31N 51°56' E 004°12'0 0.0
2016-Jul-20 02:31N 51°56' E 004°12'0 0.0
2016-Jul-20 01:31N 51°56' E 004°12'0 0.0
2016-Jul-20 00:31N 51°56' E 004°12'0 0.0
2016-Jul-19 23:33N 51°56' E 004°12'6 6.0
2016-Jul-19 22:33N 51°59' E 004°04'8 7.9
2016-Jul-19 21:34N 51°59' E 003°51'6 5.9
2016-Jul-19 20:33N 51°55' E 003°44'0 0.0
2016-Jul-19 19:22N 51°55' E 003°44'0 0.0
2016-Jul-19 18:25N 51°55' E 003°44'0 0.0
2016-Jul-19 17:25N 51°55' E 003°44'0 0.1
2016-Jul-19 16:31N 51°55' E 003°44'0 0.0
2016-Jul-19 15:28N 51°55' E 003°44'0 0.0
2016-Jul-19 14:31N 51°55' E 003°44'0 0.0
2016-Jul-19 13:31N 51°55' E 003°44'0 0.0
2016-Jul-19 12:31N 51°55' E 003°44'0 0.0
2016-Jul-19 10:25N 51°55' E 003°44'0 0.0
2016-Jul-19 09:31N 51°55' E 003°44'0 0.0
2016-Jul-19 08:28N 51°55' E 003°44'0 0.0
2016-Jul-19 07:31N 51°55' E 003°44'0 0.0
2016-Jul-19 04:31N 51°55' E 003°44'0 0.0
2016-Jul-19 03:31N 51°55' E 003°44'0 0.0
2016-Jul-19 02:28N 51°55' E 003°44'0 0.0
2016-Jul-19 01:28N 51°55' E 003°44'0 0.0
2016-Jul-19 00:33N 51°55' E 003°44'0 0.1
2016-Jul-18 23:33N 51°55' E 003°44'0 0.1
2016-Jul-18 22:33N 51°55' E 003°44'0 0.0
2016-Jul-18 21:33N 51°55' E 003°44'0 0.0
2016-Jul-18 20:34N 51°55' E 003°44'0 0.0
2016-Jul-18 19:33N 51°55' E 003°44'0 0.0
2016-Jul-18 18:33N 51°55' E 003°44'0 0.0
2016-Jul-18 17:34N 51°55' E 003°44'0 0.1
2016-Jul-18 16:34N 51°55' E 003°44'0 0.0
2016-Jul-18 15:34N 51°55' E 003°44'0 0.0
2016-Jul-18 14:34N 51°55' E 003°44'0 0.0
2016-Jul-18 13:34N 51°55' E 003°44'0 0.0
2016-Jul-18 12:34N 51°55' E 003°44'0 0.0
2016-Jul-18 11:34N 51°55' E 003°44'0 0.1
2016-Jul-18 10:33N 51°55' E 003°44'0 0.1
2016-Jul-18 09:33N 51°55' E 003°44'2 1.9
2016-Jul-18 08:34N 51°55' E 003°41'9 8.8
2016-Jul-18 07:33N 51°55' E 003°27'9 9.0
2016-Jul-18 06:33N 51°53' E 003°13'9 9.2
2016-Jul-18 05:34N 51°50' E 002°59'10 9.7
2016-Jul-18 04:33N 51°47' E 002°44'1010.0
2016-Jul-18 03:34N 51°41' E 002°32'1110.9
2016-Jul-18 02:33N 51°32' E 002°21'1111.1
2016-Jul-18 01:33N 51°23' E 002°10'1111.4
2016-Jul-18 00:33N 51°13' E 002°01'1212.4
2016-Jul-17 23:34N 51°06' E 001°46'1313.2
2016-Jul-17 22:33N 50°57' E 001°30'1312.9
2016-Jul-17 21:32N 50°44' E 001°23'3711.2
2016-Jul-17 18:14N 50°24' E 000°35'811.5
2016-Jul-17 17:33N 50°21' E 000°23'1111.2
2016-Jul-17 16:34N 50°18' E 000°06'9 9.3
2016-Jul-17 15:34N 50°09' E 000°01'10 9.8
2016-Jul-17 14:34N 49°60' E 000°01'10 9.7
2016-Jul-17 13:33N 49°50' W 000°00'10 9.5
2016-Jul-17 12:34N 49°41' W 000°04'1010.4
2016-Jul-17 11:34N 49°31' E 000°02'6 6.2
2016-Jul-17 10:34N 49°29' E 000°10'1 1.3
2016-Jul-17 09:33N 49°29' E 000°12'0 0.0
2016-Jul-17 08:33N 49°29' E 000°12'0 0.0
2016-Jul-17 07:30N 49°29' E 000°12'0 0.0
2016-Jul-17 06:33N 49°29' E 000°12'0 0.0
2016-Jul-17 04:33N 49°29' E 000°12'0 0.0
2016-Jul-17 03:33N 49°29' E 000°12'0 0.0
2016-Jul-17 02:33N 49°29' E 000°12'0 0.0
2016-Jul-17 01:33N 49°29' E 000°12'0 0.0
2016-Jul-17 00:33N 49°29' E 000°12'0 0.0
2016-Jul-16 23:33N 49°29' E 000°12'0 0.0
2016-Jul-16 22:33N 49°29' E 000°12'0 0.0
2016-Jul-16 21:33N 49°29' E 000°12'0 0.0
2016-Jul-16 20:33N 49°29' E 000°12'0 0.0
2016-Jul-16 19:33N 49°29' E 000°12'0 0.0
2016-Jul-16 18:33N 49°29' E 000°12'0 0.0
2016-Jul-16 17:33N 49°29' E 000°12'0 0.0
2016-Jul-16 16:33N 49°29' E 000°12'0 0.0
2016-Jul-16 15:33N 49°29' E 000°12'0 0.0
2016-Jul-16 14:33N 49°29' E 000°12'1 1.3
2016-Jul-16 13:34N 49°29' E 000°10'5 4.5
2016-Jul-16 12:33N 49°29' E 000°03'9 8.6
2016-Jul-16 11:34N 49°32' W 000°09'8 8.3
2016-Jul-16 10:34N 49°40' W 000°06'9 9.0
2016-Jul-16 09:33N 49°49' W 000°02'9 9.4
2016-Jul-16 08:33N 49°58' W 000°03'9 9.1
2016-Jul-16 07:33N 50°07' W 000°03'9 8.6
2016-Jul-16 06:33N 50°16' W 000°02'14 7.1
2016-Jul-16 04:33N 50°29' E 000°06'9 8.6
2016-Jul-16 03:31N 50°32' E 000°19'37 9.3
2016-Jul-15 23:33N 50°50' E 001°10'8 8.4
2016-Jul-15 22:33N 50°56' E 001°19'8 7.6
2016-Jul-15 21:34N 51°02' E 001°27'7 7.0
2016-Jul-15 20:34N 51°07' E 001°35'7 7.4
2016-Jul-15 19:34N 51°12' E 001°43'8 8.5
2016-Jul-15 18:34N 51°20' E 001°49'10 9.7
2016-Jul-15 17:34N 51°28' E 001°57'1010.1
2016-Jul-15 16:34N 51°36' E 002°08'10 9.9
2016-Jul-15 15:34N 51°43' E 002°18'10 9.6
2016-Jul-15 14:33N 51°50' E 002°29'29 8.6
2016-Jul-15 11:10N 52°12' E 002°60'5 8.1
2016-Jul-15 10:32N 52°17' E 003°04'8 8.1
2016-Jul-15 09:33N 52°23' E 003°12'9 8.7
2016-Jul-15 08:32N 52°30' E 003°21'10 9.3
2016-Jul-15 07:28N 52°38' E 003°32'75 8.4
2016-Jul-14 22:33N 53°32' E 004°57'9 8.9
2016-Jul-14 21:33N 53°35' E 005°11'9 8.7
2016-Jul-14 20:33N 53°38' E 005°25'8 8.1
2016-Jul-14 19:33N 53°41' E 005°38'8 7.6
2016-Jul-14 18:34N 53°43' E 005°50'7 7.1
2016-Jul-14 17:34N 53°45' E 006°02'7 6.8
2016-Jul-14 16:34N 53°47' E 006°13'  

Dump ship's entire track history